createdAt,value
2019-01-11T00:00:32.305Z,93.30
2019-01-11T00:03:00.897Z,89.13
2019-01-11T00:05:29.501Z,96.40
2019-01-11T00:07:58.122Z,94.13
2019-01-11T00:10:26.579Z,90.10
2019-01-11T00:12:55.126Z,90.53
2019-01-11T00:15:23.656Z,93.60
2019-01-11T00:17:52.319Z,101.00
2019-01-11T00:20:21.002Z,109.13
2019-01-11T00:22:49.615Z,106.20
2019-01-11T00:25:18.217Z,95.30
2019-01-11T00:27:46.760Z,100.27
2019-01-11T00:30:15.646Z,100.33
2019-01-11T00:32:44.297Z,101.40
2019-01-11T00:35:12.756Z,100.83
2019-01-11T00:37:41.320Z,108.90
2019-01-11T00:40:09.878Z,130.57
2019-01-11T00:42:38.462Z,122.33
2019-01-11T00:45:09.751Z,110.97
2019-01-11T00:47:38.416Z,102.20
2019-01-11T00:50:08.909Z,105.60
2019-01-11T00:52:37.518Z,94.93
2019-01-11T00:55:08.391Z,100.10
2019-01-11T00:57:36.954Z,99.93
2019-01-11T01:00:17.662Z,102.37
2019-01-11T01:02:46.372Z,107.23
2019-01-11T01:05:15.071Z,95.50
2019-01-11T01:07:43.737Z,105.80
2019-01-11T01:10:12.304Z,126.87
2019-01-11T01:12:40.954Z,115.90
2019-01-11T01:15:11.702Z,104.30
2019-01-11T01:17:40.121Z,97.03
2019-01-11T01:20:16.738Z,97.37
2019-01-11T01:22:45.277Z,99.33
2019-01-11T01:25:13.734Z,99.70
2019-01-11T01:27:42.275Z,105.07
2019-01-11T01:30:16.919Z,102.40
2019-01-11T01:32:45.538Z,100.90
2019-01-11T01:35:14.080Z,103.13
2019-01-11T01:37:42.767Z,105.40
2019-01-11T01:40:13.899Z,98.97
2019-01-11T01:42:42.569Z,105.67
2019-01-11T01:45:16.577Z,99.43
2019-01-11T01:47:45.274Z,100.70
2019-01-11T01:50:13.949Z,101.37
2019-01-11T01:52:42.476Z,98.93
2019-01-11T01:55:13.261Z,101.87
2019-01-11T01:57:41.833Z,98.53
2019-01-11T02:00:13.616Z,88.03
2019-01-11T02:02:42.115Z,99.87
2019-01-11T02:05:10.913Z,87.07
2019-01-11T02:07:39.404Z,99.73
2019-01-11T02:10:10.844Z,99.73
2019-01-11T02:12:39.561Z,96.90
2019-01-11T02:15:09.717Z,90.77
2019-01-11T02:17:38.360Z,95.37
2019-01-11T02:20:10.262Z,96.47
2019-01-11T02:22:38.799Z,103.07
2019-01-11T02:25:08.057Z,97.27
2019-01-11T02:27:36.620Z,94.63
2019-01-11T02:30:08.501Z,101.27
2019-01-11T02:32:37.308Z,92.77
2019-01-11T02:35:05.853Z,98.27
2019-01-11T02:37:34.582Z,93.10
2019-01-11T02:40:03.662Z,92.80
2019-01-11T02:42:32.317Z,98.63
2019-01-11T02:45:00.948Z,93.97
2019-01-11T02:47:29.425Z,99.47
2019-01-11T02:49:58.170Z,86.37
2019-01-11T02:52:26.758Z,90.57
2019-01-11T02:54:55.259Z,95.77
2019-01-11T02:57:23.786Z,101.40
2019-01-11T02:59:52.398Z,98.77
2019-01-11T03:02:20.913Z,95.10
2019-01-11T03:04:49.790Z,94.67
2019-01-11T03:07:18.216Z,95.53
2019-01-11T03:09:46.931Z,101.93
2019-01-11T03:12:15.495Z,98.60
2019-01-11T03:14:44.066Z,94.87
2019-01-11T03:17:12.777Z,92.93
2019-01-11T03:19:47.726Z,98.87
2019-01-11T03:22:11.653Z,94.43
2019-01-11T03:24:40.241Z,101.83
2019-01-11T03:27:08.734Z,101.63
2019-01-11T03:29:37.293Z,91.70
2019-01-11T03:32:05.863Z,99.97
2019-01-11T03:34:36.198Z,107.67
2019-01-11T03:37:04.780Z,104.50
2019-01-11T03:39:33.383Z,104.47
2019-01-11T03:42:03.530Z,107.10
2019-01-11T03:44:31.994Z,123.43
2019-01-11T03:47:00.511Z,119.47
2019-01-11T03:49:29.157Z,115.10
2019-01-11T03:51:57.855Z,106.00
2019-01-11T03:54:26.377Z,95.33
2019-01-11T03:56:55.023Z,105.53
2019-01-11T03:59:23.581Z,95.67
2019-01-11T04:01:52.136Z,105.23
2019-01-11T04:04:20.762Z,110.57
2019-01-11T04:06:49.324Z,113.27
2019-01-11T04:09:17.920Z,114.63
2019-01-11T04:11:46.537Z,126.37
2019-01-11T04:14:15.260Z,127.37
2019-01-11T04:16:43.830Z,113.60
2019-01-11T04:19:12.454Z,119.87
2019-01-11T04:21:42.653Z,120.53
2019-01-11T04:24:11.236Z,122.53
2019-01-11T04:26:39.882Z,128.97
2019-01-11T04:29:08.441Z,117.90
2019-01-11T04:31:36.958Z,129.57
2019-01-11T04:34:05.621Z,111.20
2019-01-11T04:36:34.290Z,98.60
2019-01-11T04:39:04.127Z,107.40
2019-01-11T04:41:32.719Z,82.53
2019-01-11T04:44:01.339Z,92.73
2019-01-11T04:46:29.879Z,87.63
2019-01-11T04:48:58.414Z,78.03
2019-01-11T04:51:26.853Z,67.77
2019-01-11T04:53:55.460Z,69.70
2019-01-11T04:56:24.097Z,67.10
2019-01-11T04:58:52.737Z,71.20
2019-01-11T05:01:21.274Z,67.97
2019-01-11T05:03:49.854Z,61.77
2019-01-11T05:06:18.331Z,45.00
2019-01-11T05:08:47.106Z,26.37
2019-01-11T05:11:15.624Z,28.63
2019-01-11T05:13:44.171Z,27.57
2019-01-11T05:16:12.594Z,24.50
2019-01-11T05:18:41.320Z,27.57
2019-01-11T05:21:09.829Z,27.37
2019-01-11T05:23:38.409Z,27.70
2019-01-11T05:26:07.110Z,29.03
2019-01-11T05:28:35.770Z,26.00
2019-01-11T05:31:04.568Z,31.87
2019-01-11T05:33:33.147Z,28.90
2019-01-11T05:36:01.566Z,26.20
2019-01-11T05:38:30.043Z,30.03
2019-01-11T05:40:58.619Z,31.10
2019-01-11T05:43:27.358Z,26.77
2019-01-11T05:45:55.982Z,26.10
2019-01-11T05:48:24.623Z,25.90
2019-01-11T05:50:53.052Z,29.80
2019-01-11T05:53:21.549Z,29.40
2019-01-11T05:55:50.081Z,25.93
2019-01-11T05:58:22.994Z,29.93
2019-01-11T06:00:51.532Z,28.07
2019-01-11T06:03:20.230Z,27.30
2019-01-11T06:05:48.722Z,26.20
2019-01-11T06:08:18.897Z,26.13
2019-01-11T06:10:47.639Z,22.83
2019-01-11T06:13:16.078Z,22.53
2019-01-11T06:15:44.724Z,20.50
2019-01-11T06:18:13.671Z,25.00
2019-01-11T06:20:42.441Z,22.07
2019-01-11T06:23:11.038Z,24.13
2019-01-11T06:25:39.654Z,19.63
2019-01-11T06:28:08.157Z,22.03
2019-01-11T06:30:36.959Z,21.47
2019-01-11T06:33:05.558Z,17.30
2019-01-11T06:35:35.389Z,19.77
2019-01-11T06:38:03.965Z,17.23
2019-01-11T06:40:32.575Z,16.43
2019-01-11T06:43:03.663Z,21.07
2019-01-11T06:45:31.316Z,23.03
2019-01-11T06:47:59.957Z,23.70
2019-01-11T06:50:28.560Z,20.77
2019-01-11T06:52:57.178Z,23.33
2019-01-11T06:55:25.763Z,17.97
2019-01-11T06:57:54.436Z,20.20
2019-01-11T07:00:22.995Z,15.77
2019-01-11T07:02:51.733Z,15.83
2019-01-11T07:05:20.154Z,18.37
2019-01-11T07:07:48.611Z,15.03
2019-01-11T07:10:19.704Z,15.77
2019-01-11T07:12:48.243Z,16.30
2019-01-11T07:15:16.778Z,16.73
2019-01-11T07:17:45.360Z,18.07
2019-01-11T07:20:14.906Z,14.13
2019-01-11T07:22:43.538Z,12.43
2019-01-11T07:25:13.968Z,15.00
2019-01-11T07:27:44.014Z,18.40
2019-01-11T07:30:14.693Z,14.10
2019-01-11T07:32:43.284Z,17.57
2019-01-11T07:35:11.805Z,17.20
2019-01-11T07:37:40.419Z,17.10
2019-01-11T07:40:12.952Z,13.80
2019-01-11T07:42:41.413Z,11.33
2019-01-11T07:45:11.897Z,14.03
2019-01-11T07:47:40.421Z,12.80
2019-01-11T07:50:10.049Z,14.07
2019-01-11T07:52:38.506Z,15.17
2019-01-11T07:55:09.369Z,12.47
2019-01-11T07:57:37.840Z,18.10
2019-01-11T08:00:09.373Z,20.93
2019-01-11T08:02:37.993Z,19.53
2019-01-11T08:05:06.955Z,21.47
2019-01-11T08:07:35.610Z,18.33
2019-01-11T08:10:07.488Z,11.77
2019-01-11T08:12:36.184Z,10.33
2019-01-11T08:15:07.707Z,8.77
2019-01-11T08:17:36.338Z,11.53
2019-01-11T08:20:06.552Z,12.80
2019-01-11T08:22:36.689Z,14.07
2019-01-11T08:25:06.626Z,16.90
2019-01-11T08:27:35.203Z,15.63
2019-01-11T08:30:05.021Z,16.00
2019-01-11T08:32:33.536Z,18.50
2019-01-11T08:35:03.784Z,20.57
2019-01-11T08:37:32.785Z,16.47
2019-01-11T08:40:01.543Z,18.57
2019-01-11T08:42:30.002Z,14.93
2019-01-11T08:45:00.029Z,13.47
2019-01-11T08:47:28.624Z,9.30
2019-01-11T08:49:57.175Z,9.43
2019-01-11T08:52:25.713Z,10.83
2019-01-11T08:54:54.488Z,9.47
2019-01-11T08:57:23.130Z,9.30
2019-01-11T08:59:51.595Z,10.80
2019-01-11T09:02:20.189Z,12.53
2019-01-11T09:04:48.936Z,14.00
2019-01-11T09:07:17.597Z,12.97
2019-01-11T09:09:46.149Z,12.60
2019-01-11T09:12:14.714Z,12.37
2019-01-11T09:14:47.933Z,11.37
2019-01-11T09:17:16.853Z,11.00
2019-01-11T09:19:46.016Z,9.97
2019-01-11T09:22:14.844Z,9.60
2019-01-11T09:24:43.550Z,9.87
2019-01-11T09:27:12.344Z,9.43
2019-01-11T09:29:40.822Z,9.07
2019-01-11T09:32:09.518Z,9.23
2019-01-11T09:34:38.148Z,7.90
2019-01-11T09:37:07.152Z,9.17
2019-01-11T09:39:36.097Z,8.27
2019-01-11T09:42:04.742Z,8.50
2019-01-11T09:44:33.314Z,9.33
2019-01-11T09:47:01.860Z,12.23
2019-01-11T09:49:30.415Z,8.13
2019-01-11T09:51:59.040Z,9.80
2019-01-11T09:54:27.657Z,7.87
2019-01-11T09:56:56.076Z,6.43
2019-01-11T09:59:24.650Z,6.13
2019-01-11T10:01:55.046Z,5.80
2019-01-11T10:04:25.242Z,6.70
2019-01-11T10:06:55.625Z,10.33
2019-01-11T10:09:24.470Z,9.57
2019-01-11T10:11:53.065Z,6.97
2019-01-11T10:14:21.616Z,5.23
2019-01-11T10:16:50.692Z,8.77
2019-01-11T10:19:19.276Z,9.57
2019-01-11T10:21:47.847Z,7.60
2019-01-11T10:24:16.591Z,7.53
2019-01-11T10:26:45.109Z,8.23
2019-01-11T10:29:13.659Z,8.97
2019-01-11T10:31:42.360Z,8.43
2019-01-11T10:34:10.921Z,6.93
2019-01-11T10:36:39.615Z,6.57
2019-01-11T10:39:08.179Z,6.93
2019-01-11T10:41:36.729Z,6.20
2019-01-11T10:44:05.287Z,8.80
2019-01-11T10:46:35.773Z,7.40
2019-01-11T10:49:04.330Z,6.07
2019-01-11T10:51:32.941Z,5.43
2019-01-11T10:54:01.532Z,13.20
2019-01-11T10:56:30.072Z,10.60
2019-01-11T10:58:58.590Z,13.07
2019-01-11T11:01:27.230Z,15.30
2019-01-11T11:03:55.745Z,11.47
2019-01-11T11:06:24.392Z,9.83
2019-01-11T11:08:52.925Z,10.67
2019-01-11T11:11:21.464Z,15.07
2019-01-11T11:13:49.925Z,13.30
2019-01-11T11:16:18.559Z,19.80
2019-01-11T11:18:47.034Z,18.33
2019-01-11T11:21:15.548Z,21.67
2019-01-11T11:23:44.151Z,40.07
2019-01-11T11:26:12.600Z,115.97
2019-01-11T11:28:41.087Z,94.27
2019-01-11T11:31:09.604Z,19.53
2019-01-11T11:33:38.081Z,32.50
2019-01-11T11:36:06.708Z,23.67
2019-01-11T11:38:35.394Z,35.60
2019-01-11T11:41:03.835Z,16.97
2019-01-11T11:43:33.272Z,20.23
2019-01-11T11:46:01.889Z,32.73
2019-01-11T11:48:30.554Z,25.80
2019-01-11T11:50:59.131Z,25.57
2019-01-11T11:53:27.758Z,36.80
2019-01-11T11:55:56.370Z,21.80
2019-01-11T11:58:25.127Z,31.23
2019-01-11T12:00:53.706Z,24.20
2019-01-11T12:03:22.360Z,15.47
2019-01-11T12:05:51.454Z,24.93
2019-01-11T12:08:20.371Z,24.93
2019-01-11T12:10:49.028Z,24.37
2019-01-11T12:13:17.671Z,21.70
2019-01-11T12:15:46.308Z,10.27
2019-01-11T12:18:14.793Z,19.13
2019-01-11T12:20:43.390Z,36.20
2019-01-11T12:23:12.051Z,22.00
2019-01-11T12:25:40.705Z,39.53
2019-01-11T12:28:09.500Z,43.37
2019-01-11T12:30:37.970Z,64.13
2019-01-11T12:33:06.515Z,60.43
2019-01-11T12:35:35.054Z,44.77
2019-01-11T12:38:03.683Z,97.13
2019-01-11T12:40:33.258Z,161.07
2019-01-11T12:43:01.678Z,52.63
2019-01-11T12:45:30.458Z,75.23
2019-01-11T12:47:59.079Z,67.83
2019-01-11T12:50:27.609Z,81.53
2019-01-11T12:52:56.305Z,300.47
2019-01-11T12:55:24.863Z,55.53
2019-01-11T12:57:53.474Z,28.07
2019-01-11T13:00:22.165Z,60.00
2019-01-11T13:02:50.951Z,163.43
2019-01-11T13:05:20.149Z,93.77
2019-01-11T13:07:48.812Z,124.20
2019-01-11T13:10:18.879Z,164.33
2019-01-11T13:12:47.684Z,73.83
2019-01-11T13:15:18.941Z,49.83
2019-01-11T13:17:47.408Z,52.70
2019-01-11T13:20:17.681Z,40.87
2019-01-11T13:22:46.488Z,70.50
2019-01-11T13:25:14.972Z,60.53
2019-01-11T13:27:43.428Z,42.60
2019-01-11T13:30:14.212Z,54.60
2019-01-11T13:32:42.978Z,99.70
2019-01-11T13:35:11.485Z,32.00
2019-01-11T13:37:40.272Z,33.67
2019-01-11T13:40:12.071Z,63.13
2019-01-11T13:42:40.544Z,58.70
2019-01-11T13:45:09.402Z,50.53
2019-01-11T13:47:37.964Z,55.23
2019-01-11T13:50:10.280Z,75.13
2019-01-11T13:52:38.805Z,56.17
2019-01-11T13:55:07.690Z,64.47
2019-01-11T13:57:36.407Z,115.77
2019-01-11T14:00:08.411Z,49.97
2019-01-11T14:02:36.986Z,70.33
2019-01-11T14:05:06.062Z,114.57
2019-01-11T14:07:34.798Z,59.97
2019-01-11T14:10:03.311Z,62.17
2019-01-11T14:12:32.181Z,73.87
2019-01-11T14:15:01.024Z,88.10
2019-01-11T14:17:29.465Z,59.50
2019-01-11T14:19:58.029Z,69.27
2019-01-11T14:22:26.782Z,68.23
2019-01-11T14:24:55.317Z,94.83
2019-01-11T14:27:23.756Z,96.27
2019-01-11T14:29:52.360Z,60.13
2019-01-11T14:32:20.863Z,64.13
2019-01-11T14:34:49.363Z,52.47
2019-01-11T14:37:17.884Z,84.03
2019-01-11T14:39:46.547Z,93.47
2019-01-11T14:42:15.066Z,84.57
2019-01-11T14:44:43.747Z,67.90
2019-01-11T14:47:12.309Z,77.33
2019-01-11T14:49:41.046Z,94.43
2019-01-11T14:52:09.714Z,81.63
2019-01-11T14:54:38.227Z,93.27
2019-01-11T14:57:06.706Z,87.00
2019-01-11T14:59:35.975Z,97.40
2019-01-11T15:02:04.727Z,65.03
2019-01-11T15:04:33.216Z,51.83
2019-01-11T15:07:01.712Z,64.47
2019-01-11T15:09:30.310Z,40.73
2019-01-11T15:11:58.857Z,44.53
2019-01-11T15:14:27.420Z,36.63
2019-01-11T15:16:55.964Z,49.10
2019-01-11T15:19:24.521Z,35.43
2019-01-11T15:21:53.076Z,54.07
2019-01-11T15:24:21.948Z,31.10
2019-01-11T15:26:50.495Z,31.73
2019-01-11T15:29:19.199Z,36.20
2019-01-11T15:31:47.708Z,28.20
2019-01-11T15:34:16.508Z,33.07
2019-01-11T15:36:45.698Z,28.17
2019-01-11T15:39:14.157Z,31.50
2019-01-11T15:41:42.962Z,34.83
2019-01-11T15:44:11.812Z,29.50
2019-01-11T15:46:40.256Z,21.57
2019-01-11T15:49:08.931Z,28.77
2019-01-11T15:51:37.880Z,29.37
2019-01-11T15:54:06.604Z,21.40
2019-01-11T15:56:35.401Z,29.13
2019-01-11T15:59:04.007Z,30.07
2019-01-11T16:01:32.466Z,30.47
2019-01-11T16:04:03.531Z,32.07
2019-01-11T16:06:32.356Z,30.77
2019-01-11T16:09:04.726Z,69.37
2019-01-11T16:11:43.701Z,92.90
2019-01-11T16:14:33.577Z,48.33
2019-01-11T16:17:05.800Z,68.90
2019-01-11T16:19:34.332Z,29.87
2019-01-11T16:22:04.526Z,36.20
2019-01-11T16:24:33.558Z,28.30
2019-01-11T16:27:02.160Z,55.27
2019-01-11T16:29:30.723Z,47.50
2019-01-11T16:31:59.555Z,46.63
2019-01-11T16:34:28.386Z,83.90
2019-01-11T16:36:57.950Z,64.50
2019-01-11T16:39:26.420Z,51.40
2019-01-11T16:41:55.286Z,97.17
2019-01-11T16:44:24.091Z,101.20
2019-01-11T16:46:52.728Z,86.17
2019-01-11T16:49:22.792Z,45.50
2019-01-11T16:51:51.376Z,85.97
2019-01-11T16:54:19.899Z,151.53
2019-01-11T16:56:48.696Z,81.67
2019-01-11T16:59:17.205Z,66.57
2019-01-11T17:01:45.695Z,114.20
2019-01-11T17:04:14.298Z,85.00
2019-01-11T17:06:42.784Z,62.97
2019-01-11T17:09:11.471Z,52.90
2019-01-11T17:11:40.169Z,55.87
2019-01-11T17:14:08.821Z,139.93
2019-01-11T17:16:37.896Z,60.57
2019-01-11T17:19:06.663Z,33.40
2019-01-11T17:21:35.244Z,51.30
2019-01-11T17:24:03.955Z,75.07
2019-01-11T17:26:32.595Z,73.37
2019-01-11T17:29:01.087Z,85.73
2019-01-11T17:31:29.844Z,117.17
2019-01-11T17:33:58.807Z,106.77
2019-01-11T17:36:27.505Z,72.67
2019-01-11T17:38:55.970Z,54.17
2019-01-11T17:41:24.402Z,47.77
2019-01-11T17:43:52.877Z,42.73
2019-01-11T17:46:21.518Z,49.63
2019-01-11T17:48:50.068Z,59.37
2019-01-11T17:51:18.531Z,127.30
2019-01-11T17:53:47.176Z,65.67
2019-01-11T17:56:16.098Z,63.00
2019-01-11T17:58:44.744Z,55.70
2019-01-11T18:01:13.320Z,51.33
2019-01-11T18:03:42.118Z,57.47
2019-01-11T18:06:10.992Z,70.40
2019-01-11T18:08:39.858Z,72.43
2019-01-11T18:11:08.479Z,66.63
2019-01-11T18:13:36.986Z,51.73
2019-01-11T18:16:05.764Z,51.10
2019-01-11T18:18:34.215Z,45.07
2019-01-11T18:21:02.828Z,51.73
2019-01-11T18:23:31.425Z,67.20
2019-01-11T18:25:59.905Z,66.77
2019-01-11T18:28:28.466Z,58.87
2019-01-11T18:30:56.956Z,55.07
2019-01-11T18:33:25.431Z,58.10
2019-01-11T18:35:54.014Z,54.17
2019-01-11T18:38:22.545Z,42.23
2019-01-11T18:40:51.060Z,41.10
2019-01-11T18:43:19.491Z,46.50
2019-01-11T18:45:48.113Z,43.67
2019-01-11T18:48:16.717Z,36.23
2019-01-11T18:50:45.433Z,38.00
2019-01-11T18:53:14.169Z,42.17
2019-01-11T18:55:42.766Z,35.43
2019-01-11T18:58:11.252Z,40.80
2019-01-11T19:00:39.874Z,43.43
2019-01-11T19:03:08.359Z,49.10
2019-01-11T19:05:36.845Z,48.10
2019-01-11T19:08:05.398Z,47.67
2019-01-11T19:10:33.912Z,42.70
2019-01-11T19:13:02.531Z,40.53
2019-01-11T19:15:31.163Z,39.93
2019-01-11T19:17:59.720Z,46.17
2019-01-11T19:20:28.794Z,32.53
2019-01-11T19:22:57.248Z,31.13
2019-01-11T19:25:25.901Z,30.53
2019-01-11T19:27:54.421Z,27.90
2019-01-11T19:30:27.089Z,32.93
2019-01-11T19:32:56.818Z,30.10
2019-01-11T19:35:26.530Z,30.97
2019-01-11T19:37:55.204Z,34.70
2019-01-11T19:40:24.312Z,27.73
2019-01-11T19:42:52.906Z,33.60
2019-01-11T19:45:21.470Z,29.07
2019-01-11T19:47:50.059Z,29.57
2019-01-11T19:50:20.887Z,32.17
2019-01-11T19:52:50.321Z,30.73
2019-01-11T19:55:19.100Z,34.93
2019-01-11T19:57:48.123Z,31.20
2019-01-11T20:00:19.886Z,27.57
2019-01-11T20:02:48.674Z,31.23
2019-01-11T20:05:17.500Z,27.90
2019-01-11T20:07:46.598Z,29.20
2019-01-11T20:10:18.367Z,32.13
2019-01-11T20:12:47.087Z,34.80
2019-01-11T20:15:15.815Z,31.13
2019-01-11T20:17:44.637Z,35.07
2019-01-11T20:20:14.721Z,37.03
2019-01-11T20:22:43.543Z,38.13
2019-01-11T20:25:21.027Z,37.40
2019-01-11T20:27:49.614Z,35.47
2019-01-11T20:30:23.433Z,36.30
2019-01-11T20:32:52.365Z,38.07
2019-01-11T20:35:21.076Z,36.00
2019-01-11T20:37:49.696Z,36.10
2019-01-11T20:40:18.304Z,38.47
2019-01-11T20:42:46.822Z,34.93
2019-01-11T20:45:18.353Z,36.50
2019-01-11T20:47:47.033Z,37.47
2019-01-11T20:50:17.716Z,36.83
2019-01-11T20:52:46.342Z,35.47
2019-01-11T20:55:14.948Z,38.77
2019-01-11T20:57:44.866Z,34.07
2019-01-11T21:00:17.191Z,34.20
2019-01-11T21:02:46.065Z,36.67
2019-01-11T21:05:15.575Z,35.27
2019-01-11T21:07:44.653Z,35.80
2019-01-11T21:10:14.750Z,32.27
2019-01-11T21:12:43.592Z,31.70
2019-01-11T21:15:15.368Z,35.10
2019-01-11T21:17:44.004Z,32.70
2019-01-11T21:20:15.092Z,36.53
2019-01-11T21:22:44.043Z,31.53
2019-01-11T21:25:14.570Z,32.00
2019-01-11T21:27:43.157Z,27.53
2019-01-11T21:30:20.327Z,35.53
2019-01-11T21:32:48.980Z,31.13
2019-01-11T21:35:17.664Z,32.27
2019-01-11T21:37:46.365Z,33.47
2019-01-11T21:40:16.886Z,28.47
2019-01-11T21:42:46.021Z,31.07
2019-01-11T21:45:14.808Z,30.30
2019-01-11T21:47:43.385Z,34.00
2019-01-11T21:50:17.649Z,30.70
2019-01-11T21:52:46.244Z,32.43
2019-01-11T21:55:15.058Z,26.73
2019-01-11T21:57:44.234Z,27.53
2019-01-11T22:00:19.534Z,28.50
2019-01-11T22:02:48.208Z,32.10
2019-01-11T22:05:17.030Z,31.70
2019-01-11T22:07:45.982Z,31.50
2019-01-11T22:10:16.158Z,27.40
2019-01-11T22:12:45.052Z,29.87
2019-01-11T22:15:16.098Z,29.20
2019-01-11T22:17:44.930Z,25.67
2019-01-11T22:20:18.755Z,24.17
2019-01-11T22:22:47.317Z,24.87
2019-01-11T22:25:16.686Z,26.17
2019-01-11T22:27:45.395Z,23.90
2019-01-11T22:30:16.594Z,23.57
2019-01-11T22:32:45.400Z,26.07
2019-01-11T22:35:14.714Z,24.67
2019-01-11T22:37:44.028Z,24.20
2019-01-11T22:40:15.035Z,23.13
2019-01-11T22:42:43.707Z,26.47
2019-01-11T22:45:15.913Z,21.33
2019-01-11T22:47:44.660Z,21.47
2019-01-11T22:50:15.227Z,21.47
2019-01-11T22:52:43.713Z,19.03
2019-01-11T22:55:15.409Z,19.23
2019-01-11T22:57:44.027Z,24.00
2019-01-11T23:00:26.554Z,17.37
2019-01-11T23:02:58.476Z,16.07
2019-01-11T23:05:27.361Z,16.70
2019-01-11T23:07:56.888Z,19.30
2019-01-11T23:10:52.161Z,16.63
2019-01-11T23:13:20.894Z,16.00
2019-01-11T23:15:50.470Z,15.57
2019-01-11T23:18:19.185Z,14.53
2019-01-11T23:20:47.941Z,14.47
2019-01-11T23:23:16.663Z,15.20
2019-01-11T23:25:45.561Z,16.27
2019-01-11T23:28:14.269Z,19.67
2019-01-11T23:30:42.801Z,22.40
2019-01-11T23:33:11.455Z,17.73
2019-01-11T23:35:40.624Z,19.33
2019-01-11T23:38:09.139Z,18.13
2019-01-11T23:40:37.809Z,15.80
2019-01-11T23:43:06.405Z,18.23
2019-01-11T23:45:34.983Z,16.97
2019-01-11T23:48:03.494Z,20.20
2019-01-11T23:50:33.035Z,23.07
2019-01-11T23:53:02.088Z,18.50
2019-01-11T23:55:30.661Z,22.70
2019-01-11T23:57:59.210Z,18.27
